Řízení letového provozu České republiky
Letiste: LKTB Aktualizace: 29.06.2016 23:06:15  UTC
 METAR LKTB 29.06. 23:00 ...
METAR LKTB 292300Z 02005KT 9999 FEW040 19/15 Q1014 NOSIG RMK REG QNH 1012=
 TAF LKTB 29.06. 17:00 ...
TAF LKTB 291700Z 2918/3024 VRB02KT CAVOK      BECMG 3010/3012 23010KT 9999 SCT040      TEMPO 3012/3021 17014G28KT SCT030TCU      PROB30 TEMPO 3017/3021 4000 TSRA SCT020CB BKN030=